Mora RC

2021-01-22 04:50:00

  • imperial
Date Time Air Temperature Relative Humidity Dewpoint Windchill Heat Index Wind Speed Wind Dir. Rain Solar Radiation Soil Temperature
2m 2m 3m 3m 10cm
US/Mountain F % F F F MPH deg in MJ/m^2 F
max avg avg
2021-01-21 05:05:00 35.0 51.5 18.9 31.0 35.0 4.6 9.6 6.5 326.3 307.8 0.00 0.0000000 34.3
2021-01-21 05:10:00 36.8 45.8 17.8 31.4 36.8 6.7 7.8 6.0 277.8 317.1 0.00 0.0000000 34.3
2021-01-21 05:15:00 36.1 49.5 19.0 30.5 36.1 6.9 10.5 7.4 328.4 304.8 0.00 0.0000000 34.3
2021-01-21 05:20:00 36.0 47.6 18.0 30.7 36.0 6.3 6.9 5.1 302.8 291.2 0.00 0.0000000 34.3
2021-01-21 05:25:00 35.5 50.2 18.7 29.6 35.5 7.1 8.7 5.9 292.1 286.7 0.00 0.0000000 34.3
2021-01-21 05:30:00 34.9 51.7 18.9 30.1 34.9 5.5 8.5 6.4 284.7 305.6 0.00 0.0000000 34.3
2021-01-21 05:35:00 34.9 46.4 16.4 29.9 34.9 5.6 8.3 5.7 319.3 304.0 0.00 0.0000000 34.3
2021-01-21 05:40:00 36.0 47.6 18.0 31.2 36.0 5.6 7.6 5.2 321.3 306.1 0.00 0.0000000 34.3
2021-01-21 05:45:00 35.8 46.9 17.5 32.0 35.8 4.4 9.0 6.4 318.0 316.3 0.00 0.0000000 34.3
2021-01-21 05:50:00 35.8 48.7 18.4 30.7 35.8 6.2 7.1 5.1 299.1 305.6 0.00 0.0000000 34.3
2021-01-21 05:55:00 36.1 45.2 16.9 31.2 36.1 6.0 9.2 6.2 311.3 312.5 0.00 0.0000000 34.3
2021-01-21 06:00:00 35.5 50.6 19.0 30.3 35.5 6.0 12.8 7.3 315.1 300.7 0.00 0.0000000 34.3
2021-01-21 06:05:00 35.3 49.7 18.4 29.8 35.3 6.5 11.9 7.6 289.6 320.1 0.00 0.0000000 34.3
2021-01-21 06:10:00 35.5 47.6 17.6 29.6 35.5 7.2 9.7 6.4 316.0 309.1 0.00 0.0000000 34.3
2021-01-21 06:15:00 35.2 49.9 18.3 28.4 35.2 8.5 8.5 6.4 311.9 310.0 0.00 0.0000000 34.3
2021-01-21 06:20:00 34.5 51.8 18.6 30.6 34.5 4.4 9.4 5.9 267.4 302.6 0.00 0.0000000 34.3
2021-01-21 06:25:00 35.2 47.6 17.3 31.4 35.2 4.4 6.9 5.1 301.5 306.2 0.00 0.0000000 34.3
2021-01-21 06:30:00 36.8 45.7 17.8 36.8 36.8 1.9 9.7 5.3 263.7 304.9 0.00 0.0000000 34.3
2021-01-21 06:35:00 35.9 45.8 17.0 32.7 35.9 3.8 10.1 4.9 338.7 299.9 0.00 0.0000000 34.3
2021-01-21 06:40:00 36.8 44.4 17.1 31.4 36.8 6.9 7.2 4.8 296.0 324.7 0.00 0.0000000 34.3
2021-01-21 06:45:00 34.7 50.6 18.2 34.7 34.7 2.8 5.6 3.3 222.3 252.6 0.00 0.0000000 34.3
2021-01-21 06:50:00 33.0 55.2 18.7 29.0 33.0 4.2 8.3 5.4 320.1 275.0 0.00 0.0000000 34.3
2021-01-21 06:55:00 35.5 46.2 16.9 28.4 35.5 9.4 10.3 6.7 317.6 303.1 0.00 0.0000000 34.2
2021-01-21 07:00:00 34.7 51.8 18.8 30.3 34.7 4.9 9.4 4.9 236.1 265.3 0.00 0.0000053 34.3
2021-01-21 07:05:00 34.5 51.4 18.4 28.3 34.5 7.2 13.0 6.9 317.7 290.1 0.00 0.0000000 34.3
2021-01-21 07:10:00 35.3 48.6 17.9 29.4 35.3 7.2 12.8 5.8 271.0 328.9 0.00 0.0002772 34.3
2021-01-21 07:15:00 36.1 47.7 18.1 31.9 36.1 4.9 8.5 6.0 305.6 309.2 0.00 0.0007769 34.2
2021-01-21 07:20:00 35.9 48.2 18.2 30.6 35.9 6.3 6.9 5.4 315.7 313.9 0.00 0.0016754 34.2
2021-01-21 07:25:00 36.8 46.6 18.2 34.1 36.8 3.5 9.0 5.3 271.1 324.2 0.00 0.0031639 34.2
2021-01-21 07:30:00 33.6 53.8 18.6 28.7 33.6 5.3 8.0 5.5 261.7 284.1 0.00 0.0037610 34.2
2021-01-21 07:35:00 32.2 56.9 18.6 28.1 32.2 4.2 6.5 4.6 275.2 258.5 0.00 0.0049737 34.2
2021-01-21 07:40:00 32.8 55.5 18.6 29.1 32.8 3.8 5.3 4.4 336.1 306.4 0.00 0.0062456 34.2
2021-01-21 07:45:00 32.4 56.5 18.6 29.1 32.4 3.5 6.9 4.6 283.2 286.3 0.00 0.0056616 34.2
2021-01-21 07:50:00 31.6 58.0 18.5 28.0 31.6 3.7 4.7 3.3 307.7 275.7 0.00 0.0092394 34.2
2021-01-21 07:55:00 32.6 54.7 18.1 27.5 32.6 5.3 6.9 3.7 258.0 282.4 0.00 0.0148617 34.2
2021-01-21 08:00:00 33.6 53.3 18.4 31.0 33.6 3.1 7.6 4.6 315.1 287.6 0.00 0.0191515 34.2
2021-01-21 08:05:00 34.1 52.3 18.4 31.4 34.1 3.1 4.9 2.6 214.8 208.0 0.00 0.0223735 34.2
2021-01-21 08:10:00 36.6 40.6 14.9 29.4 36.6 9.9 9.9 4.6 326.7 318.6 0.00 0.0285445 34.2
2021-01-21 08:15:00 39.3 40.0 17.0 36.4 39.3 4.0 8.5 4.3 300.2 302.5 0.00 0.0461989 34.2
2021-01-21 08:20:00 38.1 43.6 17.8 35.2 38.1 3.8 5.3 3.4 337.9 297.6 0.00 0.0261625 34.2
2021-01-21 08:25:00 37.9 40.3 15.8 37.9 37.9 2.2 4.4 3.1 311.0 296.5 0.00 0.0156562 34.2
2021-01-21 08:30:00 37.7 43.7 17.6 34.8 37.7 3.8 5.3 2.8 295.7 295.5 0.00 0.0164749 34.2
2021-01-21 08:35:00 36.9 45.3 17.7 34.5 36.9 3.3 4.0 2.7 281.5 303.8 0.00 0.0217731 34.2
2021-01-21 08:40:00 36.5 46.3 17.8 33.2 36.5 4.0 4.0 3.2 198.8 260.3 0.00 0.0188151 34.2
2021-01-21 08:45:00 34.6 50.5 18.1 34.6 34.6 2.1 4.4 2.7 202.5 223.4 0.00 0.0334020 34.2
2021-01-21 08:50:00 35.8 46.8 17.5 33.2 35.8 3.3 3.3 2.5 265.8 288.8 0.00 0.0858563 34.2
2021-01-21 08:55:00 37.9 43.4 17.5 37.9 37.9 2.8 3.3 2.5 300.9 301.2 0.00 0.0883050 34.2
2021-01-21 09:00:00 39.3 41.5 17.8 37.0 39.3 3.5 4.6 2.4 207.3 198.0 0.00 0.0916435 34.2
2021-01-21 09:05:00 41.3 37.3 17.2 41.3 41.3 2.1 6.2 2.7 296.0 214.2 0.00 0.0956105 34.2
2021-01-21 09:10:00 40.6 39.3 17.7 40.6 40.6 2.8 4.7 3.4 265.9 288.4 0.00 0.0993334 34.2
2021-01-21 09:15:00 43.0 34.6 17.0 43.0 43.0 1.3 3.8 1.3 119.1 308.5 0.00 0.1030255 34.2
2021-01-21 09:20:00 42.4 37.9 18.5 42.4 42.4 3.0 5.5 3.6 109.5 120.7 0.00 0.1064415 34.2
2021-01-21 09:25:00 41.4 38.6 18.0 41.4 41.4 2.4 4.9 3.3 122.3 137.1 0.00 0.1096929 34.2
2021-01-21 09:30:00 40.7 39.1 17.7 40.7 40.7 3.0 3.5 2.5 96.0 84.4 0.00 0.1143782 34.2
2021-01-21 09:35:00 40.7 40.9 18.7 40.7 40.7 2.2 4.7 3.5 128.3 93.4 0.00 0.1179969 34.2
2021-01-21 09:40:00 41.4 39.0 18.3 41.4 41.4 2.4 3.3 2.4 76.9 83.1 0.00 0.1221018 34.2
2021-01-21 09:45:00 43.3 35.1 17.5 43.3 43.3 1.7 3.3 2.2 135.9 108.9 0.00 0.1252963 34.2
2021-01-21 09:50:00 43.9 35.6 18.4 42.6 43.9 3.1 3.7 2.6 110.6 117.4 0.00 0.1288453 34.2
2021-01-21 09:55:00 43.6 36.7 18.8 43.6 43.6 2.4 4.2 2.8 73.1 104.7 0.00 0.1318648 34.2
2021-01-21 10:00:00 43.1 36.9 18.5 43.1 43.1 1.9 3.0 2.4 113.0 91.9 0.00 0.1352363 34.2
2021-01-21 10:05:00 44.9 34.5 18.6 43.8 44.9 3.1 4.7 3.3 101.5 114.4 0.00 0.1389263 34.2
2021-01-21 10:10:00 45.5 31.6 17.1 44.0 45.5 3.7 4.0 3.0 82.1 106.0 0.00 0.1420292 34.2
2021-01-21 10:15:00 44.1 34.3 17.7 41.7 44.1 4.4 5.1 3.8 108.6 84.1 0.00 0.1447225 34.2
2021-01-21 10:20:00 45.2 33.3 18.0 44.1 45.2 3.1 4.9 3.4 131.5 106.8 0.00 0.1476463 34.2
2021-01-21 10:25:00 45.8 33.3 18.5 42.9 45.8 5.5 9.0 4.4 134.0 120.8 0.00 0.1502993 34.2
2021-01-21 10:30:00 45.8 32.1 17.6 42.9 45.8 5.5 9.0 4.7 121.0 100.6 0.00 0.1530447 34.2
2021-01-21 10:35:00 45.5 34.0 18.8 44.1 45.5 3.5 7.1 4.6 117.7 139.2 0.00 0.1552137 34.2
2021-01-21 10:40:00 46.3 31.3 17.4 44.8 46.3 3.7 5.1 3.8 194.4 148.2 0.00 0.1581952 34.2
2021-01-21 10:45:00 47.6 30.9 18.3 47.6 47.6 1.9 4.9 2.5 50.0 133.8 0.00 0.1611317 34.2
2021-01-21 10:50:00 48.1 29.3 17.5 48.1 48.1 2.2 4.7 2.7 81.1 87.5 0.00 0.1634133 34.2
2021-01-21 10:55:00 47.7 31.8 19.2 46.2 47.7 4.0 8.5 4.3 237.9 154.0 0.00 0.1649178 34.2
2021-01-21 11:00:00 48.5 28.1 16.9 48.5 48.5 3.0 5.1 3.1 324.3 176.6 0.00 0.1668550 34.2
2021-01-21 11:05:00 48.5 28.6 17.3 47.0 48.5 4.0 7.1 3.2 317.5 356.2 0.00 0.1684994 34.2
2021-01-21 11:10:00 48.1 29.8 17.9 48.1 48.1 2.4 8.0 4.0 57.6 356.7 0.00 0.1703484 34.2
2021-01-21 11:15:00 47.6 30.7 18.2 47.6 47.6 3.0 8.1 4.0 50.3 346.0 0.00 0.1724380 34.2
2021-01-21 11:20:00 47.2 30.2 17.4 42.9 47.2 9.0 12.1 5.8 336.1 358.3 0.00 0.1738736 34.2
2021-01-21 11:25:00 46.4 32.3 18.3 42.4 46.4 7.8 13.3 8.1 295.3 331.5 0.00 0.1755240 34.2
2021-01-21 11:30:00 45.6 32.1 17.4 39.7 45.6 12.2 15.6 10.5 339.0 333.3 0.00 0.1766884 34.2
2021-01-21 11:35:00 45.6 33.8 18.7 42.0 45.6 6.9 14.4 9.3 344.8 348.2 0.00 0.1782668 34.2
2021-01-21 11:40:00 45.6 34.4 19.1 40.8 45.6 9.4 17.1 8.3 348.4 342.5 0.00 0.1793339 34.2
2021-01-21 11:45:00 45.4 34.9 19.3 42.7 45.4 5.3 15.8 10.5 0.6 343.0 0.00 0.1799009 34.2
2021-01-21 11:50:00 45.4 32.9 17.9 40.1 45.4 10.6 14.4 10.1 322.7 338.0 0.00 0.1807052 34.2
2021-01-21 11:55:00 45.1 35.7 19.6 41.5 45.1 6.7 16.2 11.7 8.0 341.4 0.00 0.1811497 34.2
2021-01-21 12:00:00 45.2 33.1 17.8 39.4 45.2 11.9 18.3 12.2 6.9 328.0 0.00 0.1817841 34.2
2021-01-21 12:05:00 45.5 34.2 18.9 43.0 45.5 4.9 12.6 9.0 293.5 320.4 0.00 0.1825667 34.2
2021-01-21 12:10:00 45.7 33.8 18.8 42.1 45.7 6.9 13.3 8.0 349.9 319.8 0.00 0.1826509 34.2
2021-01-21 12:15:00 45.8 32.5 18.0 40.6 45.8 10.6 17.8 8.8 11.4 336.4 0.00 0.1825511 34.2
2021-01-21 12:20:00 45.6 33.5 18.5 40.6 45.6 9.9 14.2 10.2 314.5 332.6 0.00 0.1824306 34.2
2021-01-21 12:25:00 45.4 31.7 17.0 38.4 45.4 16.2 17.2 12.5 299.8 325.7 0.00 0.1822529 34.2
2021-01-21 12:30:00 45.4 32.4 17.5 39.7 45.4 11.9 17.4 11.5 315.5 324.1 0.00 0.1818639 34.2
2021-01-21 12:35:00 45.4 33.4 18.3 39.7 45.4 11.9 15.1 11.0 321.6 319.9 0.00 0.1811916 34.2
2021-01-21 12:40:00 45.4 32.8 17.9 39.9 45.4 11.2 18.9 12.3 0.0 333.4 0.00 0.1804049 34.2
2021-01-21 12:45:00 45.6 31.9 17.3 41.4 45.6 8.0 16.9 11.3 282.2 334.9 0.00 0.1795876 34.2
2021-01-21 12:50:00 45.1 33.3 17.9 38.2 45.1 15.6 21.5 12.8 298.7 315.6 0.00 0.1785948 34.2
2021-01-21 12:55:00 44.9 34.5 18.5 40.2 44.9 8.7 19.9 11.7 316.0 328.4 0.00 0.1777560 34.2
2021-01-21 13:00:00 45.1 31.4 16.6 38.3 45.1 15.5 17.6 10.8 336.8 319.9 0.00 0.1764782 34.2
2021-01-21 13:05:00 44.9 33.9 18.1 38.8 44.9 12.6 16.9 13.4 325.1 325.7 0.00 0.1754266 34.2
2021-01-21 13:10:00 44.7 34.0 18.0 38.8 44.7 11.7 15.1 11.4 321.3 321.7 0.00 0.1735226 34.2
2021-01-21 13:15:00 44.5 34.4 18.2 38.6 44.5 11.7 19.4 11.4 313.0 317.7 0.00 0.1720174 34.2
2021-01-21 13:20:00 45.0 33.8 18.1 37.9 45.0 16.0 20.1 12.4 340.9 331.9 0.00 0.1701873 34.2
2021-01-21 13:25:00 44.8 34.1 18.2 39.0 44.8 11.5 17.6 12.1 322.9 313.6 0.00 0.1686400 34.2
2021-01-21 13:30:00 44.3 34.5 18.0 38.5 44.3 11.2 20.5 13.4 333.4 322.0 0.00 0.1664212 34.2
2021-01-21 13:35:00 44.8 35.8 19.3 39.4 44.8 10.5 14.2 9.6 307.3 325.2 0.00 0.1642856 34.2
2021-01-21 13:40:00 44.7 34.4 18.3 39.0 44.7 11.0 15.1 10.1 318.4 315.8 0.00 0.1619724 34.2
2021-01-21 13:45:00 44.5 36.9 19.7 40.9 44.5 6.3 17.2 10.6 312.9 316.7 0.00 0.1595935 34.2
2021-01-21 13:50:00 44.6 36.2 19.4 39.7 44.6 9.0 14.9 9.5 324.8 314.1 0.00 0.1572698 34.2
2021-01-21 13:55:00 44.5 35.2 18.7 37.9 44.5 14.0 14.0 10.3 322.0 317.8 0.00 0.1546078 34.2
2021-01-21 14:00:00 44.2 35.6 18.7 39.8 44.2 7.8 15.3 10.5 309.6 311.7 0.00 0.1514781 34.2
2021-01-21 14:05:00 44.0 36.2 18.9 39.5 44.0 8.0 13.1 10.6 308.1 309.2 0.00 0.1484857 34.2
2021-01-21 14:10:00 44.1 35.1 18.2 39.2 44.1 8.8 15.5 10.6 292.8 313.3 0.00 0.1455328 34.2
2021-01-21 14:15:00 44.0 35.9 18.7 39.7 44.0 7.6 14.9 10.5 292.5 308.1 0.00 0.1427793 34.2
2021-01-21 14:20:00 43.9 36.3 18.8 38.2 43.9 10.5 13.7 10.1 317.4 308.2 0.00 0.1401060 34.2
2021-01-21 14:25:00 44.5 35.3 18.7 37.8 44.5 14.2 17.2 10.5 321.3 314.7 0.00 0.1373493 34.2
2021-01-21 14:30:00 44.2 36.5 19.2 39.2 44.2 9.0 15.8 9.4 304.1 299.8 0.00 0.1346306 34.2
2021-01-21 14:35:00 44.9 33.6 17.9 39.3 44.9 11.0 15.3 8.6 324.5 316.4 0.00 0.1324913 34.2
2021-01-21 14:40:00 44.9 33.3 17.7 39.2 44.9 11.3 14.7 9.0 297.2 304.6 0.00 0.1293516 34.2
2021-01-21 14:45:00 44.7 33.9 17.9 41.2 44.7 6.2 13.0 8.4 291.6 295.6 0.00 0.1258213 34.2
2021-01-21 14:50:00 44.8 32.9 17.3 39.6 44.8 9.9 12.1 7.9 297.1 300.0 0.00 0.1208452 34.2
2021-01-21 14:55:00 44.6 35.4 18.9 40.4 44.6 7.4 10.6 7.9 306.4 297.8 0.00 0.1173972 34.2
2021-01-21 15:00:00 44.8 35.2 18.9 41.6 44.8 5.6 9.7 7.0 318.8 284.3 0.00 0.1137760 34.2
2021-01-21 15:05:00 44.9 34.1 18.3 40.2 44.9 8.7 11.0 7.0 325.7 290.4 0.00 0.1071657 34.2
2021-01-21 15:10:00 44.9 34.5 18.5 41.8 44.9 5.6 9.6 6.3 296.8 286.8 0.00 0.1073097 34.2
2021-01-21 15:15:00 44.8 33.6 17.9 41.1 44.8 6.7 10.6 6.2 4.9 321.5 0.00 0.0898184 34.2
2021-01-21 15:20:00 45.2 33.0 17.8 43.2 45.2 4.2 8.0 4.8 38.5 352.0 0.00 0.0842129 34.2
2021-01-21 15:25:00 45.4 34.0 18.7 45.4 45.4 0.8 5.8 3.1 66.4 13.5 0.00 0.0752173 34.2
2021-01-21 15:30:00 45.6 32.6 17.8 45.6 45.6 2.6 5.1 3.0 25.9 347.4 0.00 0.0907516 34.2
2021-01-21 15:35:00 45.5 35.4 19.7 43.9 45.5 3.7 4.7 2.8 342.9 8.1 0.00 0.0564087 34.2
2021-01-21 15:40:00 43.6 36.2 18.5 40.9 43.6 4.7 9.7 5.1 333.5 358.5 0.00 0.0122516 34.2
2021-01-21 15:45:00 43.7 34.9 17.8 43.7 43.7 2.2 9.2 4.9 349.7 341.1 0.00 0.0659217 34.2
2021-01-21 15:50:00 43.6 35.9 18.3 40.8 43.6 4.7 12.6 6.9 324.7 323.4 0.00 0.0673932 34.2
2021-01-21 15:55:00 44.1 35.4 18.4 40.7 44.1 5.8 9.0 4.6 32.3 1.6 0.00 0.0696750 34.2
2021-01-21 16:00:00 43.2 36.5 18.3 37.9 43.2 9.2 12.8 7.0 349.5 328.9 0.00 0.0569431 34.2
2021-01-21 16:05:00 42.9 38.8 19.5 38.6 42.9 7.1 11.9 8.3 322.4 328.7 0.00 0.0601510 34.2
2021-01-21 16:10:00 42.5 34.8 16.6 35.1 42.5 14.7 16.2 10.8 302.5 326.8 0.00 0.0559506 34.2
2021-01-21 16:15:00 42.2 37.6 18.2 36.3 42.2 10.1 14.2 10.5 329.5 329.7 0.00 0.0518273 34.2
2021-01-21 16:20:00 41.9 38.1 18.2 38.0 41.9 6.0 11.9 7.9 12.1 341.6 0.00 0.0476747 34.2
2021-01-21 16:25:00 41.6 38.6 18.2 36.2 41.6 8.7 15.1 8.4 347.4 339.1 0.00 0.0378894 34.2
2021-01-21 16:30:00 41.6 37.2 17.3 34.7 41.6 12.2 14.2 7.5 349.3 343.7 0.00 0.0110911 34.2
2021-01-21 16:35:00 41.6 39.6 18.8 37.8 41.6 5.6 9.6 6.0 4.3 344.3 0.00 0.0061463 34.2
2021-01-21 16:40:00 40.9 39.2 17.9 36.5 40.9 6.5 8.1 5.8 297.4 329.7 0.00 0.0050866 34.2
2021-01-21 16:45:00 40.5 40.5 18.4 37.1 40.5 4.9 10.5 7.0 334.7 328.3 0.00 0.0045978 34.2
2021-01-21 16:50:00 40.2 43.4 19.6 40.2 40.2 2.2 7.8 4.4 331.5 340.1 0.00 0.0036954 34.2
2021-01-21 16:55:00 39.8 43.0 19.1 36.9 39.8 4.2 10.5 6.2 32.4 324.7 0.00 0.0030838 34.2
2021-01-21 17:00:00 39.7 43.0 19.0 37.2 39.7 3.7 9.4 5.4 346.3 337.9 0.00 0.0023024 34.2
2021-01-21 17:05:00 39.5 43.9 19.3 37.2 39.5 3.5 6.9 4.8 337.9 331.4 0.00 0.0016293 34.2
2021-01-21 17:10:00 39.2 44.2 19.2 35.7 39.2 4.7 5.3 3.6 347.5 328.3 0.00 0.0008575 34.1
2021-01-21 17:15:00 39.1 43.6 18.8 33.1 39.1 8.8 13.3 6.4 324.2 339.2 0.00 0.0006033 34.1
2021-01-21 17:20:00 39.1 44.5 19.2 35.7 39.1 4.6 11.7 7.4 295.6 322.2 0.00 0.0000968 34.1
2021-01-21 17:25:00 38.9 44.1 18.9 33.7 38.9 7.2 10.5 7.1 332.3 336.9 0.00 0.0000000 34.2
2021-01-21 17:30:00 38.9 43.5 18.6 34.5 38.9 6.0 12.4 7.7 318.7 322.1 0.00 0.0000000 34.2
2021-01-21 17:35:00 38.8 44.5 19.0 33.4 38.8 7.4 11.5 6.9 330.5 323.5 0.00 0.0000000 34.2
2021-01-21 17:40:00 38.9 43.8 18.7 35.1 38.9 5.1 11.9 8.3 319.0 319.4 0.00 0.0000000 34.1
2021-01-21 17:45:00 38.7 43.6 18.4 35.3 38.7 4.6 11.3 7.4 313.1 321.6 0.00 0.0000000 34.1
2021-01-21 17:50:00 38.6 44.7 18.9 35.8 38.6 3.8 10.1 5.8 88.0 320.8 0.00 0.0000000 34.1
2021-01-21 17:55:00 38.4 44.3 18.5 34.6 38.4 4.9 9.9 5.2 334.9 324.6 0.00 0.0000000 34.1
2021-01-21 18:00:00 38.4 43.1 17.9 32.9 38.4 7.4 11.5 6.8 16.7 334.7 0.00 0.0000000 34.1
2021-01-21 18:05:00 38.1 44.3 18.3 34.3 38.1 4.9 7.4 5.0 321.5 325.7 0.00 0.0000000 34.1
2021-01-21 18:10:00 38.0 43.9 18.0 32.6 38.0 7.2 7.2 4.5 351.9 334.7 0.00 0.0000000 34.1
2021-01-21 18:15:00 38.0 43.9 17.9 34.0 38.0 5.1 7.8 5.3 320.8 333.0 0.00 0.0000000 34.1
2021-01-21 18:20:00 38.0 43.2 17.6 32.4 38.0 7.6 11.3 5.7 334.0 342.4 0.00 0.0000000 34.1
2021-01-21 18:25:00 38.0 44.3 18.1 38.0 38.0 2.4 10.5 5.6 348.0 330.9 0.00 0.0000000 34.1
2021-01-21 18:30:00 37.9 44.3 18.1 32.5 37.9 7.2 8.0 4.8 331.3 332.3 0.00 0.0000000 34.1
2021-01-21 18:35:00 37.0 46.0 18.1 34.0 37.0 3.8 8.0 3.7 351.1 304.9 0.00 0.0000000 34.1
2021-01-21 18:40:00 36.0 48.7 18.6 33.5 36.0 3.3 3.7 2.8 259.1 279.9 0.00 0.0000000 34.1
2021-01-21 18:45:00 34.4 52.4 18.7 31.8 34.4 3.1 3.7 3.1 244.5 261.0 0.00 0.0000000 34.1
2021-01-21 18:50:00 33.6 54.0 18.7 33.6 33.6 2.6 3.7 2.6 300.7 251.3 0.00 0.0000000 34.1
2021-01-21 18:55:00 33.7 53.5 18.6 29.6 33.7 4.4 6.5 4.0 327.5 273.5 0.00 0.0000000 34.1
2021-01-21 19:00:00 34.8 49.8 17.9 31.1 34.8 4.2 7.8 5.5 277.7 276.4 0.00 0.0000000 34.1
2021-01-21 19:05:00 34.4 51.4 18.3 31.0 34.4 3.8 5.8 4.2 244.2 277.2 0.00 0.0000000 34.1
2021-01-21 19:10:00 33.7 53.9 18.8 30.2 33.7 3.8 5.6 3.1 244.8 260.8 0.00 0.0000000 34.1
2021-01-21 19:15:00 34.1 51.1 17.9 27.8 34.1 7.2 9.7 4.5 283.4 294.1 0.00 0.0000000 34.1
2021-01-21 19:20:00 36.0 48.4 18.4 36.0 36.0 2.6 8.5 4.8 288.4 308.3 0.00 0.0000000 34.1
2021-01-21 19:25:00 33.9 53.0 18.5 33.9 33.9 1.3 4.6 2.5 257.9 274.4 0.00 0.0000000 34.1
2021-01-21 19:30:00 31.5 58.7 18.7 28.6 31.5 3.1 3.1 2.0 251.0 237.7 0.00 0.0000000 34.1
2021-01-21 19:35:00 30.6 59.6 18.2 30.6 30.6 1.9 3.8 2.8 200.5 269.9 0.00 0.0000000 34.1
2021-01-21 19:40:00 29.8 61.3 18.0 29.8 29.8 0.0 1.7 0.8 255.0 259.6 0.00 0.0000000 34.1
2021-01-21 19:45:00 28.6 65.2 18.4 28.6 28.6 0.0 1.3 0.4 214.3 235.2 0.00 0.0000000 34.1
2021-01-21 19:50:00 27.7 65.6 17.7 27.7 27.7 1.0 2.6 1.3 160.7 261.3 0.00 0.0000000 34.1
2021-01-21 19:55:00 28.5 63.3 17.6 28.5 28.5 1.9 3.8 2.1 195.9 205.8 0.00 0.0000000 34.1
2021-01-21 20:00:00 28.2 64.1 17.6 28.2 28.2 0.0 3.8 2.0 118.7 213.4 0.00 0.0000000 34.1
2021-01-21 20:05:00 28.5 63.9 17.8 28.5 28.5 1.3 2.6 0.6 188.3 222.2 0.00 0.0000000 34.1
2021-01-21 20:10:00 28.4 65.2 18.2 28.4 28.4 2.1 4.0 1.7 316.0 239.1 0.00 0.0000000 34.1
2021-01-21 20:15:00 29.2 62.3 17.9 29.2 29.2 2.2 2.8 1.6 223.2 261.2 0.00 0.0000017 34.1
2021-01-21 20:20:00 28.7 63.3 17.8 28.7 28.7 1.3 3.0 2.2 205.5 223.1 0.00 0.0000000 34.1
2021-01-21 20:25:00 28.2 65.3 18.0 28.2 28.2 1.0 2.1 1.2 144.0 174.1 0.00 0.0000000 34.1
2021-01-21 20:30:00 27.4 67.8 18.2 27.4 27.4 2.2 2.4 0.9 178.9 173.8 0.00 0.0000000 34.1
2021-01-21 20:35:00 27.2 69.0 18.4 27.2 27.2 0.0 3.0 1.9 207.2 192.5 0.00 0.0000000 34.1
2021-01-21 20:40:00 28.9 64.2 18.3 23.7 28.9 4.7 8.7 2.0 241.5 339.8 0.00 0.0000323 34.1
2021-01-21 20:45:00 32.9 54.5 18.2 27.7 32.9 5.5 9.4 5.0 245.3 282.2 0.00 0.0001035 34.1
2021-01-21 20:50:00 34.3 52.7 18.8 26.1 34.3 11.0 12.2 6.7 337.8 299.7 0.00 0.0000038 34.1
2021-01-21 20:55:00 36.4 49.2 19.1 31.7 36.4 5.6 14.4 8.4 331.6 319.7 0.00 0.0000517 34.1
2021-01-21 21:00:00 36.9 48.4 19.2 30.6 36.9 8.3 11.0 7.2 322.1 324.8 0.00 0.0000000 34.1
2021-01-21 21:05:00 37.0 47.8 19.0 31.7 37.0 6.7 11.7 5.9 348.9 324.3 0.00 0.0000000 34.1
2021-01-21 21:10:00 37.0 48.1 19.1 33.4 37.0 4.4 10.6 5.6 317.5 314.2 0.00 0.0000000 34.1
2021-01-21 21:15:00 36.9 48.5 19.2 32.3 36.9 5.6 8.5 5.9 340.7 304.0 0.00 0.0000000 34.1
2021-01-21 21:20:00 36.5 48.1 18.7 31.2 36.5 6.5 8.8 6.0 341.1 316.8 0.00 0.0000000 34.0
2021-01-21 21:25:00 36.5 48.5 18.9 31.7 36.5 5.8 8.0 4.4 307.0 317.7 0.00 0.0000000 34.0
2021-01-21 21:30:00 36.6 48.1 18.8 31.7 36.6 6.0 11.2 6.3 326.1 324.6 0.00 0.0000000 34.0
2021-01-21 21:35:00 36.6 48.0 18.8 30.6 36.6 7.6 11.5 8.6 322.5 329.8 0.00 0.0000000 34.0
2021-01-21 21:40:00 36.4 48.1 18.6 31.9 36.4 5.5 9.0 6.6 352.8 344.3 0.00 0.0000000 34.0
2021-01-21 21:45:00 36.4 47.8 18.5 32.8 36.4 4.4 11.3 6.1 308.5 352.3 0.00 0.0000000 34.0
2021-01-21 21:50:00 36.3 48.7 18.8 33.4 36.3 3.7 9.4 4.8 332.4 352.1 0.00 0.0000000 34.0
2021-01-21 21:55:00 35.8 49.6 18.8 33.5 35.8 3.1 7.1 4.0 8.4 351.2 0.00 0.0000000 34.0
2021-01-21 22:00:00 35.8 48.6 18.3 32.1 35.8 4.4 9.0 4.5 320.4 350.4 0.00 0.0000000 34.0
2021-01-21 22:05:00 35.8 48.6 18.4 33.0 35.8 3.5 8.1 4.9 35.0 0.5 0.00 0.0000000 34.0
2021-01-21 22:10:00 36.1 48.4 18.5 32.9 36.1 3.8 13.0 6.0 6.7 353.6 0.00 0.0000000 34.0
2021-01-21 22:15:00 36.0 47.5 18.0 31.9 36.0 4.9 8.3 4.6 352.2 346.1 0.00 0.0000000 34.0
2021-01-21 22:20:00 36.7 45.3 17.5 30.0 36.7 9.0 13.0 7.9 337.2 333.0 0.00 0.0000000 34.0
2021-01-21 22:25:00 36.8 42.7 16.2 31.0 36.8 7.4 11.0 8.4 340.1 332.3 0.00 0.0000000 34.0
2021-01-21 22:30:00 37.3 42.3 16.5 29.2 37.3 12.6 16.2 9.8 287.8 335.0 0.00 0.0000000 34.0
2021-01-21 22:35:00 37.2 41.4 15.9 30.8 37.2 8.7 16.5 8.6 314.2 334.9 0.00 0.0000000 34.0
2021-01-21 22:40:00 37.3 42.2 16.4 31.7 37.3 7.2 16.5 9.1 336.2 325.0 0.00 0.0000000 34.0
2021-01-21 22:45:00 36.8 42.3 16.0 32.9 36.8 4.7 12.6 6.8 298.9 321.0 0.00 0.0000000 34.0
2021-01-21 22:50:00 33.5 49.8 16.7 27.9 33.5 6.2 8.0 5.7 265.8 286.0 0.00 0.0000000 34.0
2021-01-21 22:55:00 32.0 53.2 16.9 27.6 32.0 4.4 5.3 3.9 288.6 287.4 0.00 0.0000000 34.0
2021-01-21 23:00:00 31.4 54.4 16.8 25.1 31.4 6.5 6.7 4.4 272.9 290.0 0.00 0.0000000 34.0
2021-01-21 23:05:00 31.1 55.0 16.8 31.1 31.1 2.8 7.1 4.5 285.0 279.0 0.00 0.0000000 34.0
2021-01-21 23:10:00 31.1 50.6 14.9 23.9 31.1 7.8 9.7 3.9 258.2 281.2 0.00 0.0000000 34.0
2021-01-21 23:15:00 36.0 42.0 15.1 28.6 36.0 10.1 12.1 8.2 314.5 292.7 0.00 0.0000000 33.9
2021-01-21 23:20:00 36.9 41.2 15.5 31.0 36.9 7.6 12.6 8.9 308.7 308.9 0.00 0.0000000 33.9
2021-01-21 23:25:00 36.8 40.0 14.7 34.1 36.8 3.5 10.5 6.9 313.9 315.0 0.00 0.0000000 33.9
2021-01-21 23:30:00 36.2 42.0 15.3 32.8 36.2 4.0 5.5 3.9 343.3 344.8 0.00 0.0000000 33.9
2021-01-21 23:35:00 34.9 44.7 15.6 34.9 34.9 2.1 5.3 2.6 30.9 9.2 0.00 0.0000000 33.9
2021-01-21 23:40:00 34.6 44.8 15.3 34.6 34.6 2.2 3.8 1.9 302.7 329.4 0.00 0.0000000 33.9
2021-01-21 23:45:00 35.3 44.4 15.8 32.8 35.3 3.1 6.2 3.7 310.3 325.2 0.00 0.0000000 33.9
2021-01-21 23:50:00 35.4 44.6 15.9 32.7 35.4 3.3 6.7 3.4 325.4 318.7 0.00 0.0000000 33.9
2021-01-21 23:55:00 34.3 47.6 16.4 30.5 34.3 4.2 5.6 2.2 284.7 276.3 0.00 0.0000000 33.9
2021-01-22 00:00:00 34.6 47.4 16.6 34.6 34.6 2.8 5.3 2.7 307.4 331.1 0.00 0.0000000 33.9
2021-01-22 00:05:00 35.2 45.5 16.2 35.2 35.2 2.2 8.0 4.4 275.9 314.7 0.00 0.0000000 33.9
2021-01-22 00:10:00 35.5 45.5 16.4 30.1 35.5 6.3 11.3 5.2 323.7 313.8 0.00 0.0000000 33.9
2021-01-22 00:15:00 35.5 45.5 16.5 33.1 35.5 3.1 8.5 4.5 326.9 304.3 0.00 0.0000000 33.9
2021-01-22 00:20:00 35.5 46.5 17.0 32.3 35.5 3.8 9.4 5.6 309.8 304.2 0.00 0.0000000 33.9
2021-01-22 00:25:00 35.7 46.3 17.1 30.6 35.7 6.0 11.7 6.0 266.0 304.7 0.00 0.0000000 33.9
2021-01-22 00:30:00 35.2 48.1 17.5 32.7 35.2 3.1 9.2 5.4 333.6 307.1 0.00 0.0000000 33.9
2021-01-22 00:35:00 33.3 52.1 17.6 28.9 33.3 4.7 6.2 3.0 310.5 228.7 0.00 0.0000000 33.9
2021-01-22 00:40:00 33.5 51.8 17.6 29.3 33.5 4.4 7.2 5.5 254.4 276.8 0.00 0.0000000 33.9
2021-01-22 00:45:00 34.1 50.8 17.8 27.3 34.1 8.1 8.3 5.9 290.8 291.2 0.00 0.0000000 33.9
2021-01-22 00:50:00 33.2 52.7 17.8 29.4 33.2 4.0 10.5 5.4 314.5 293.6 0.00 0.0000000 33.9
2021-01-22 00:55:00 32.4 54.3 17.7 32.4 32.4 3.0 6.5 4.0 289.0 296.9 0.00 0.0000000 33.9
2021-01-22 01:00:00 32.7 54.1 17.9 28.8 32.7 4.0 5.6 4.1 304.6 300.6 0.00 0.0000000 33.9
2021-01-22 01:05:00 33.3 52.1 17.6 27.0 33.3 7.1 11.7 6.1 279.5 299.0 0.00 0.0000000 33.9
2021-01-22 01:10:00 34.6 48.8 17.3 27.7 34.6 8.5 12.2 6.7 290.7 297.8 0.00 0.0000000 33.9
2021-01-22 01:15:00 35.5 46.7 17.2 29.2 35.5 8.0 13.7 8.4 269.0 318.8 0.00 0.0000000 33.9
2021-01-22 01:20:00 35.9 45.9 17.1 28.8 35.9 9.6 14.9 9.3 340.2 313.4 0.00 0.0000000 33.9
2021-01-22 01:25:00 35.9 46.6 17.4 28.9 35.9 9.4 15.5 9.1 329.7 323.7 0.00 0.0000000 33.9
2021-01-22 01:30:00 36.5 44.2 16.8 29.8 36.5 9.0 15.6 11.2 333.1 326.5 0.00 0.0000000 33.9
2021-01-22 01:35:00 36.5 45.6 17.5 31.9 36.5 5.6 14.9 9.7 0.4 324.6 0.00 0.0000000 33.9
2021-01-22 01:40:00 36.3 44.3 16.6 27.6 36.3 13.3 13.7 8.3 317.3 323.3 0.00 0.0000000 33.9
2021-01-22 01:45:00 36.2 45.2 17.0 29.2 36.2 9.4 15.1 8.4 281.2 309.9 0.00 0.0000000 33.9
2021-01-22 01:50:00 35.5 46.7 17.1 29.0 35.5 8.3 11.9 7.9 228.3 290.6 0.00 0.0000000 33.9
2021-01-22 01:55:00 36.2 45.8 17.2 29.5 36.2 8.7 14.7 9.1 6.8 323.2 0.00 0.0000000 33.9
2021-01-22 02:00:00 35.8 46.6 17.3 29.2 35.8 8.3 12.8 7.4 319.4 314.3 0.00 0.0000000 33.8
2021-01-22 02:05:00 35.4 48.1 17.7 30.3 35.4 6.0 11.9 6.9 304.5 303.6 0.00 0.0000000 33.8
2021-01-22 02:10:00 33.3 53.6 18.3 27.6 33.3 6.2 12.1 7.1 281.1 272.6 0.00 0.0000000 33.9
2021-01-22 02:15:00 32.9 54.1 18.2 27.2 32.9 6.2 9.6 7.2 282.2 291.0 0.00 0.0000000 33.8
2021-01-22 02:20:00 33.4 52.9 18.1 28.1 33.4 5.8 11.3 7.6 276.2 294.6 0.00 0.0000000 33.8
2021-01-22 02:25:00 33.5 53.7 18.5 29.6 33.5 4.2 9.7 6.8 270.1 296.2 0.00 0.0000000 33.8
2021-01-22 02:30:00 33.3 54.3 18.5 27.2 33.3 6.7 8.5 5.9 286.3 295.7 0.00 0.0000000 33.8
2021-01-22 02:35:00 33.1 54.0 18.2 25.9 33.1 8.3 9.9 6.9 331.6 290.9 0.00 0.0000000 33.8
2021-01-22 02:40:00 33.1 54.0 18.2 27.6 33.1 5.8 11.2 6.6 280.2 296.0 0.00 0.0000000 33.8
2021-01-22 02:45:00 33.4 53.7 18.4 27.7 33.4 6.3 14.9 7.3 276.3 300.3 0.00 0.0000000 33.8
2021-01-22 02:50:00 33.8 51.4 17.8 28.8 33.8 5.5 10.5 8.0 300.5 305.6 0.00 0.0000000 33.8
2021-01-22 02:55:00 33.8 50.6 17.4 23.3 33.8 16.9 16.9 7.8 329.2 303.4 0.00 0.0000000 33.8
2021-01-22 03:00:00 34.4 50.2 17.8 26.6 34.4 10.3 11.2 8.8 323.6 309.8 0.00 0.0000000 33.8
2021-01-22 03:05:00 34.6 49.6 17.6 27.8 34.6 8.3 13.3 8.4 309.4 316.2 0.00 0.0000000 33.8
2021-01-22 03:10:00 34.2 50.6 17.7 28.0 34.2 7.2 9.6 6.6 346.6 307.0 0.00 0.0000000 33.8
2021-01-22 03:15:00 34.7 48.1 17.0 26.0 34.7 12.4 16.5 10.6 329.3 323.3 0.00 0.0000000 33.8
2021-01-22 03:20:00 35.1 46.4 16.6 27.2 35.1 10.8 14.4 9.8 312.7 325.6 0.00 0.0000000 33.8
2021-01-22 03:25:00 35.2 47.3 17.1 26.2 35.2 13.7 14.7 8.2 308.3 315.4 0.00 0.0000000 33.8
2021-01-22 03:30:00 34.6 49.2 17.4 26.6 34.6 10.6 14.2 10.5 335.5 307.0 0.00 0.0000000 33.8
2021-01-22 03:35:00 34.4 48.3 16.8 27.5 34.4 8.3 8.8 6.9 308.6 317.1 0.00 0.0000000 33.8
2021-01-22 03:40:00 35.0 45.4 15.9 31.9 35.0 3.7 10.5 6.3 317.6 314.4 0.00 0.0000000 33.8
2021-01-22 03:45:00 34.7 47.0 16.5 28.9 34.7 6.7 9.4 5.8 313.5 302.2 0.00 0.0000000 33.8
2021-01-22 03:50:00 34.4 47.7 16.6 29.9 34.4 4.9 11.2 7.4 252.6 309.2 0.00 0.0000000 33.8
2021-01-22 03:55:00 34.1 48.9 16.8 29.1 34.1 5.5 10.6 6.6 308.1 291.8 0.00 0.0000000 33.8
2021-01-22 04:00:00 33.6 49.7 16.8 30.0 33.6 3.8 7.8 4.6 198.9 263.2 0.00 0.0000000 33.8
2021-01-22 04:05:00 33.1 50.0 16.4 30.1 33.1 3.3 7.2 3.8 276.6 263.6 0.00 0.0000000 33.8
2021-01-22 04:10:00 33.6 49.1 16.5 29.7 33.6 4.2 9.7 5.1 282.6 291.8 0.00 0.0000000 33.8
2021-01-22 04:15:00 33.7 48.3 16.2 26.6 33.7 8.5 10.8 5.5 282.1 290.8 0.00 0.0000000 33.8
2021-01-22 04:20:00 33.1 49.9 16.4 28.2 33.1 5.1 9.2 4.5 205.2 265.2 0.00 0.0000000 33.8
2021-01-22 04:25:00 32.7 49.6 15.9 28.7 32.7 4.2 7.2 3.8 305.8 278.1 0.00 0.0000000 33.8
2021-01-22 04:30:00 33.5 48.9 16.3 26.0 33.5 9.0 9.4 6.0 342.5 299.6 0.00 0.0000000 33.8
2021-01-22 04:35:00 34.3 47.5 16.4 34.3 34.3 2.8 14.0 6.6 320.5 299.3 0.00 0.0000000 33.8
2021-01-22 04:40:00 34.7 46.3 16.2 27.1 34.7 9.9 9.9 5.7 328.1 315.7 0.00 0.0000000 33.8
2021-01-22 04:45:00 35.4 45.2 16.2 28.7 35.4 8.3 14.7 10.1 297.0 317.5 0.00 0.0000000 33.8
2021-01-22 04:50:00 35.1 46.3 16.6 29.3 35.1 6.9 13.9 8.8 315.0 324.8 0.00 0.0000000 33.8

Data is courtesy of the NM Climate Center. DO NOT USE IN LEGAL PROCEEDINGS.